Marble Falls, TX

10:13 AM CDT on April 01, 2015 (GMT -0500)
Horseshoe Bay | | Change Station
CLOSE
Current Station
Airport
Location: Horseshoe Bay,
Elevation: 1093 ft
Nearby Weather Stations

Elev 1093 ft 30.53 °N, 98.36 °W | Updated 18 minutes ago

Clear
Clear
74 °F
Feels Like 74 °F
N
13
Wind Variable Wind from South
Gusts 18 mph

Today
High -- | Low -- °F
--% Chance of Precip.
Yesterday
High -- | Low -- °F
Precip. -- in
7:22 AM 7:52 PM
Waxing Gibbous, 93% visible
Pressure 29.95 in
Visibility 10.0 miles
Clouds Clear
Dew Point 65 °F
Humidity 74%
Rainfall 0.00 in
Snow Depth Not available.
UV 3 out of 12
Pollen 8.80 out of 12
Air Quality Not available.
Flu Activity Not available.
METAR KDZB 011455Z AUTO 18011G16KT 10SM CLR 23/18 A2995 RMK AO2 T02310182

More Conditions Fewer Conditions

Pressure 29.95 in
Visibility 10.0 miles
Clouds Clear
Dew Point 65 °F
Humidity 74%
Rainfall 0.00 in
Snow Depth Not available.
UV 3 out of 12
Pollen 8.80 out of 12
Air Quality Not available.
Flu Activity Not available.
METAR KDZB 011455Z AUTO 18011G16KT 10SM CLR 23/18 A2995 RMK AO2 T02310182

More Conditions Fewer Conditions

Nowcast | as of 10:04 am CDT on April 1, 2015

Through noon...isolated showers and patchy sprinkles will move to the northeast. Spotty rainfall amounts up to a few hundredths of an inch are expected.

×

10-Day Weather Forecast

Almanac

Astronomy

Apr. 01, 2015 Rise Set
Actual Time
Civil Twilight
Nautical Twilight
Astronomical Twilight
Moon
Length of Visible Light
Length of Day
Tomorrow will be .
, % of the Moon is Illuminated

Today's Extremes

State Highs State Lows

Community

WunderPhotos

Upload Photos

1,809,980 photos uploaded!

WunderBlogs® & News

Nearby

Air Quality

  Air Quality AQ Index Pollutant
Not available.

Snow Depth

Station Depth Elevation

Earthquake Activity

City Distance Mag. Time & Date
Minimum magnitude displayed is 2.5.

Coastal Water Temperatures

Place Temperature

Stations

Nearby Weather Stations

Station Location Temp. Windchill Dew Point Humidity Wind Precip. Elev Updated Type